sensor_id;sensor_type;location;lat;lon;timestamp;P1;durP1;ratioP1;P2;durP2;ratioP2
10132;SDS011;5106;50.926;7.080;2022-12-18T00:01:48;9.47;;;6.70;;
10132;SDS011;5106;50.926;7.080;2022-12-18T00:04:20;12.87;;;6.40;;
10132;SDS011;5106;50.926;7.080;2022-12-18T00:06:47;10.13;;;6.50;;
10132;SDS011;5106;50.926;7.080;2022-12-18T00:09:14;11.17;;;7.00;;
10132;SDS011;5106;50.926;7.080;2022-12-18T00:11:40;9.40;;;6.70;;
10132;SDS011;5106;50.926;7.080;2022-12-18T00:14:05;9.83;;;6.37;;
10132;SDS011;5106;50.926;7.080;2022-12-18T00:16:31;10.03;;;6.30;;
10132;SDS011;5106;50.926;7.080;2022-12-18T00:18:58;10.53;;;6.13;;
10132;SDS011;5106;50.926;7.080;2022-12-18T00:21:25;10.73;;;6.73;;
10132;SDS011;5106;50.926;7.080;2022-12-18T00:23:52;9.23;;;6.33;;
10132;SDS011;5106;50.926;7.080;2022-12-18T00:26:19;10.63;;;6.53;;
10132;SDS011;5106;50.926;7.080;2022-12-18T00:28:46;11.07;;;6.73;;
10132;SDS011;5106;50.926;7.080;2022-12-18T00:31:13;10.57;;;6.43;;
10132;SDS011;5106;50.926;7.080;2022-12-18T00:33:41;8.60;;;6.03;;
10132;SDS011;5106;50.926;7.080;2022-12-18T00:38:42;10.30;;;6.60;;
10132;SDS011;5106;50.926;7.080;2022-12-18T00:41:08;11.23;;;7.13;;
10132;SDS011;5106;50.926;7.080;2022-12-18T00:43:35;7.80;;;5.90;;
10132;SDS011;5106;50.926;7.080;2022-12-18T00:46:01;9.00;;;6.30;;
10132;SDS011;5106;50.926;7.080;2022-12-18T00:48:27;10.93;;;6.70;;
10132;SDS011;5106;50.926;7.080;2022-12-18T00:50:53;9.60;;;6.23;;
10132;SDS011;5106;50.926;7.080;2022-12-18T00:53:18;9.13;;;6.40;;
10132;SDS011;5106;50.926;7.080;2022-12-18T00:55:44;9.13;;;5.77;;
10132;SDS011;5106;50.926;7.080;2022-12-18T00:58:10;9.20;;;6.17;;
10132;SDS011;5106;50.926;7.080;2022-12-18T01:00:37;10.03;;;6.87;;
10132;SDS011;5106;50.926;7.080;2022-12-18T01:03:03;9.10;;;6.27;;
10132;SDS011;5106;50.926;7.080;2022-12-18T01:05:29;9.80;;;6.63;;
10132;SDS011;5106;50.926;7.080;2022-12-18T01:07:55;13.10;;;6.47;;
10132;SDS011;5106;50.926;7.080;2022-12-18T01:10:21;9.80;;;6.27;;
10132;SDS011;5106;50.926;7.080;2022-12-18T01:12:47;10.20;;;6.70;;
10132;SDS011;5106;50.926;7.080;2022-12-18T01:15:13;8.13;;;5.67;;
10132;SDS011;5106;50.926;7.080;2022-12-18T01:17:39;11.33;;;6.37;;
10132;SDS011;5106;50.926;7.080;2022-12-18T01:20:05;9.33;;;6.40;;
10132;SDS011;5106;50.926;7.080;2022-12-18T01:22:31;10.97;;;6.47;;
10132;SDS011;5106;50.926;7.080;2022-12-18T01:24:58;10.63;;;6.67;;
10132;SDS011;5106;50.926;7.080;2022-12-18T01:27:23;10.07;;;6.20;;
10132;SDS011;5106;50.926;7.080;2022-12-18T01:29:49;9.80;;;6.40;;
10132;SDS011;5106;50.926;7.080;2022-12-18T01:32:14;8.53;;;6.07;;
10132;SDS011;5106;50.926;7.080;2022-12-18T01:34:40;9.33;;;6.33;;
10132;SDS011;5106;50.926;7.080;2022-12-18T01:37:06;8.87;;;5.70;;
10132;SDS011;5106;50.926;7.080;2022-12-18T01:39:32;8.07;;;6.07;;
10132;SDS011;5106;50.926;7.080;2022-12-18T01:42:19;10.60;;;6.57;;
10132;SDS011;5106;50.926;7.080;2022-12-18T01:50:02;10.10;;;6.20;;
10132;SDS011;5106;50.926;7.080;2022-12-18T01:52:43;8.97;;;5.80;;
10132;SDS011;5106;50.926;7.080;2022-12-18T01:55:13;10.77;;;6.10;;
10132;SDS011;5106;50.926;7.080;2022-12-18T01:57:41;8.20;;;5.97;;
10132;SDS011;5106;50.926;7.080;2022-12-18T02:00:11;10.60;;;6.30;;
10132;SDS011;5106;50.926;7.080;2022-12-18T02:02:41;8.67;;;5.47;;
10132;SDS011;5106;50.926;7.080;2022-12-18T02:05:08;8.47;;;5.63;;
10132;SDS011;5106;50.926;7.080;2022-12-18T02:10:32;8.83;;;5.47;;
10132;SDS011;5106;50.926;7.080;2022-12-18T02:18:43;8.70;;;5.27;;
10132;SDS011;5106;50.926;7.080;2022-12-18T02:21:17;9.13;;;5.60;;
10132;SDS011;5106;50.926;7.080;2022-12-18T02:26:58;9.23;;;5.50;;
10132;SDS011;5106;50.926;7.080;2022-12-18T02:29:32;8.67;;;5.33;;
10132;SDS011;5106;50.926;7.080;2022-12-18T02:32:03;8.23;;;5.43;;
10132;SDS011;5106;50.926;7.080;2022-12-18T02:34:32;8.40;;;5.50;;
10132;SDS011;5106;50.926;7.080;2022-12-18T02:37:02;8.37;;;5.40;;
10132;SDS011;5106;50.926;7.080;2022-12-18T02:39:32;9.40;;;5.80;;
10132;SDS011;5106;50.926;7.080;2022-12-18T02:42:01;8.30;;;5.63;;
10132;SDS011;5106;50.926;7.080;2022-12-18T02:44:32;8.00;;;5.37;;
10132;SDS011;5106;50.926;7.080;2022-12-18T02:47:12;6.63;;;5.20;;
10132;SDS011;5106;50.926;7.080;2022-12-18T03:00:35;8.27;;;5.20;;
10132;SDS011;5106;50.926;7.080;2022-12-18T03:03:07;7.73;;;4.80;;
10132;SDS011;5106;50.926;7.080;2022-12-18T03:05:43;6.47;;;4.73;;
10132;SDS011;5106;50.926;7.080;2022-12-18T03:08:33;8.90;;;5.90;;
10132;SDS011;5106;50.926;7.080;2022-12-18T03:11:11;8.27;;;5.23;;
10132;SDS011;5106;50.926;7.080;2022-12-18T03:16:07;9.43;;;5.20;;
10132;SDS011;5106;50.926;7.080;2022-12-18T03:18:45;9.03;;;5.80;;
10132;SDS011;5106;50.926;7.080;2022-12-18T03:21:20;8.00;;;5.40;;
10132;SDS011;5106;50.926;7.080;2022-12-18T03:23:50;7.27;;;5.03;;
10132;SDS011;5106;50.926;7.080;2022-12-18T03:26:20;8.57;;;5.50;;
10132;SDS011;5106;50.926;7.080;2022-12-18T03:28:51;7.77;;;4.90;;
10132;SDS011;5106;50.926;7.080;2022-12-18T03:31:20;8.40;;;4.80;;
10132;SDS011;5106;50.926;7.080;2022-12-18T03:33:52;7.90;;;5.17;;
10132;SDS011;5106;50.926;7.080;2022-12-18T03:36:19;7.87;;;5.27;;
10132;SDS011;5106;50.926;7.080;2022-12-18T03:38:45;7.93;;;5.03;;
10132;SDS011;5106;50.926;7.080;2022-12-18T03:46:36;7.97;;;4.70;;
10132;SDS011;5106;50.926;7.080;2022-12-18T03:51:49;7.40;;;4.97;;
10132;SDS011;5106;50.926;7.080;2022-12-18T03:54:19;6.80;;;4.73;;
10132;SDS011;5106;50.926;7.080;2022-12-18T03:56:48;7.33;;;5.23;;
10132;SDS011;5106;50.926;7.080;2022-12-18T03:59:18;9.63;;;4.93;;
10132;SDS011;5106;50.926;7.080;2022-12-18T04:01:46;9.17;;;5.10;;
10132;SDS011;5106;50.926;7.080;2022-12-18T04:04:14;7.23;;;5.00;;
10132;SDS011;5106;50.926;7.080;2022-12-18T04:06:41;7.33;;;5.00;;
10132;SDS011;5106;50.926;7.080;2022-12-18T04:09:08;8.63;;;5.00;;
10132;SDS011;5106;50.926;7.080;2022-12-18T04:11:34;6.73;;;4.93;;
10132;SDS011;5106;50.926;7.080;2022-12-18T04:14:00;8.17;;;5.27;;
10132;SDS011;5106;50.926;7.080;2022-12-18T04:16:26;7.90;;;4.43;;
10132;SDS011;5106;50.926;7.080;2022-12-18T04:18:52;7.77;;;4.90;;
10132;SDS011;5106;50.926;7.080;2022-12-18T04:21:18;7.40;;;4.77;;
10132;SDS011;5106;50.926;7.080;2022-12-18T04:23:44;7.97;;;5.03;;
10132;SDS011;5106;50.926;7.080;2022-12-18T04:26:10;7.13;;;4.70;;
10132;SDS011;5106;50.926;7.080;2022-12-18T04:28:35;9.93;;;4.90;;
10132;SDS011;5106;50.926;7.080;2022-12-18T04:31:01;6.83;;;4.77;;
10132;SDS011;5106;50.926;7.080;2022-12-18T04:33:27;8.10;;;5.23;;
10132;SDS011;5106;50.926;7.080;2022-12-18T04:35:53;8.93;;;4.87;;
10132;SDS011;5106;50.926;7.080;2022-12-18T04:38:18;7.00;;;4.53;;
10132;SDS011;5106;50.926;7.080;2022-12-18T04:40:44;6.97;;;4.70;;
10132;SDS011;5106;50.926;7.080;2022-12-18T04:43:09;7.27;;;4.77;;
10132;SDS011;5106;50.926;7.080;2022-12-18T04:45:35;7.83;;;4.57;;
10132;SDS011;5106;50.926;7.080;2022-12-18T04:48:01;7.33;;;4.77;;
10132;SDS011;5106;50.926;7.080;2022-12-18T04:50:27;6.53;;;4.80;;
10132;SDS011;5106;50.926;7.080;2022-12-18T04:52:54;7.57;;;4.57;;
10132;SDS011;5106;50.926;7.080;2022-12-18T04:55:19;6.20;;;4.40;;
10132;SDS011;5106;50.926;7.080;2022-12-18T04:57:45;7.37;;;4.50;;
10132;SDS011;5106;50.926;7.080;2022-12-18T05:00:11;5.80;;;4.20;;
10132;SDS011;5106;50.926;7.080;2022-12-18T05:02:37;5.93;;;4.50;;
10132;SDS011;5106;50.926;7.080;2022-12-18T05:05:03;7.30;;;4.50;;
10132;SDS011;5106;50.926;7.080;2022-12-18T05:07:29;6.03;;;4.33;;
10132;SDS011;5106;50.926;7.080;2022-12-18T05:09:55;8.77;;;4.63;;
10132;SDS011;5106;50.926;7.080;2022-12-18T05:12:23;5.83;;;4.33;;
10132;SDS011;5106;50.926;7.080;2022-12-18T05:14:49;6.73;;;4.90;;
10132;SDS011;5106;50.926;7.080;2022-12-18T05:17:14;7.00;;;4.47;;
10132;SDS011;5106;50.926;7.080;2022-12-18T05:19:40;7.70;;;5.17;;
10132;SDS011;5106;50.926;7.080;2022-12-18T05:22:05;7.70;;;4.97;;
10132;SDS011;5106;50.926;7.080;2022-12-18T05:24:31;6.27;;;4.40;;
10132;SDS011;5106;50.926;7.080;2022-12-18T05:26:57;7.07;;;4.30;;
10132;SDS011;5106;50.926;7.080;2022-12-18T05:29:22;6.83;;;4.73;;
10132;SDS011;5106;50.926;7.080;2022-12-18T05:31:48;8.90;;;4.93;;
10132;SDS011;5106;50.926;7.080;2022-12-18T05:34:14;7.40;;;4.70;;
10132;SDS011;5106;50.926;7.080;2022-12-18T05:36:39;7.43;;;4.43;;
10132;SDS011;5106;50.926;7.080;2022-12-18T05:39:05;7.60;;;4.93;;
10132;SDS011;5106;50.926;7.080;2022-12-18T05:41:31;7.73;;;4.93;;
10132;SDS011;5106;50.926;7.080;2022-12-18T05:43:57;8.93;;;5.47;;
10132;SDS011;5106;50.926;7.080;2022-12-18T05:46:23;6.47;;;5.10;;
10132;SDS011;5106;50.926;7.080;2022-12-18T05:48:49;9.83;;;5.43;;
10132;SDS011;5106;50.926;7.080;2022-12-18T05:51:16;9.03;;;5.33;;
10132;SDS011;5106;50.926;7.080;2022-12-18T05:53:44;7.87;;;5.17;;
10132;SDS011;5106;50.926;7.080;2022-12-18T05:56:11;8.40;;;5.17;;
10132;SDS011;5106;50.926;7.080;2022-12-18T05:58:39;8.40;;;4.97;;
10132;SDS011;5106;50.926;7.080;2022-12-18T06:01:10;8.13;;;5.07;;
10132;SDS011;5106;50.926;7.080;2022-12-18T06:03:41;7.37;;;5.03;;
10132;SDS011;5106;50.926;7.080;2022-12-18T06:06:13;8.07;;;5.10;;
10132;SDS011;5106;50.926;7.080;2022-12-18T06:08:43;7.67;;;4.77;;
10132;SDS011;5106;50.926;7.080;2022-12-18T06:11:09;7.10;;;4.83;;
10132;SDS011;5106;50.926;7.080;2022-12-18T06:13:34;8.73;;;5.67;;
10132;SDS011;5106;50.926;7.080;2022-12-18T06:16:06;7.03;;;5.13;;
10132;SDS011;5106;50.926;7.080;2022-12-18T06:18:33;7.50;;;5.60;;
10132;SDS011;5106;50.926;7.080;2022-12-18T06:20:59;8.00;;;5.17;;
10132;SDS011;5106;50.926;7.080;2022-12-18T06:23:25;8.67;;;5.27;;
10132;SDS011;5106;50.926;7.080;2022-12-18T06:25:51;8.90;;;6.00;;
10132;SDS011;5106;50.926;7.080;2022-12-18T06:28:17;8.57;;;5.83;;
10132;SDS011;5106;50.926;7.080;2022-12-18T06:30:43;9.27;;;5.27;;
10132;SDS011;5106;50.926;7.080;2022-12-18T06:33:10;9.00;;;5.50;;
10132;SDS011;5106;50.926;7.080;2022-12-18T06:35:36;9.57;;;5.40;;
10132;SDS011;5106;50.926;7.080;2022-12-18T06:38:02;9.37;;;5.80;;
10132;SDS011;5106;50.926;7.080;2022-12-18T06:40:28;6.87;;;5.10;;
10132;SDS011;5106;50.926;7.080;2022-12-18T06:42:53;9.37;;;5.60;;
10132;SDS011;5106;50.926;7.080;2022-12-18T06:45:19;8.03;;;5.13;;
10132;SDS011;5106;50.926;7.080;2022-12-18T06:47:45;7.13;;;4.67;;
10132;SDS011;5106;50.926;7.080;2022-12-18T06:50:11;8.30;;;5.33;;
10132;SDS011;5106;50.926;7.080;2022-12-18T06:52:36;7.80;;;5.20;;
10132;SDS011;5106;50.926;7.080;2022-12-18T06:55:04;8.87;;;5.87;;
10132;SDS011;5106;50.926;7.080;2022-12-18T06:57:30;8.77;;;5.70;;
10132;SDS011;5106;50.926;7.080;2022-12-18T06:59:55;8.80;;;5.83;;
10132;SDS011;5106;50.926;7.080;2022-12-18T07:02:21;10.90;;;6.33;;
10132;SDS011;5106;50.926;7.080;2022-12-18T07:04:46;8.87;;;6.27;;
10132;SDS011;5106;50.926;7.080;2022-12-18T07:07:15;8.60;;;6.00;;
10132;SDS011;5106;50.926;7.080;2022-12-18T07:09:41;8.10;;;5.80;;
10132;SDS011;5106;50.926;7.080;2022-12-18T07:12:06;9.20;;;5.63;;
10132;SDS011;5106;50.926;7.080;2022-12-18T07:14:33;8.93;;;5.63;;
10132;SDS011;5106;50.926;7.080;2022-12-18T07:16:58;7.87;;;5.70;;
10132;SDS011;5106;50.926;7.080;2022-12-18T07:19:24;7.53;;;5.23;;
10132;SDS011;5106;50.926;7.080;2022-12-18T07:21:50;8.40;;;5.70;;
10132;SDS011;5106;50.926;7.080;2022-12-18T07:24:16;9.47;;;5.73;;
10132;SDS011;5106;50.926;7.080;2022-12-18T07:26:42;9.67;;;5.70;;
10132;SDS011;5106;50.926;7.080;2022-12-18T07:29:10;10.00;;;5.97;;
10132;SDS011;5106;50.926;7.080;2022-12-18T07:31:35;9.63;;;5.83;;
10132;SDS011;5106;50.926;7.080;2022-12-18T07:34:01;8.50;;;5.30;;
10132;SDS011;5106;50.926;7.080;2022-12-18T07:36:26;7.43;;;5.07;;
10132;SDS011;5106;50.926;7.080;2022-12-18T07:38:52;8.63;;;5.97;;
10132;SDS011;5106;50.926;7.080;2022-12-18T07:41:18;8.00;;;5.23;;
10132;SDS011;5106;50.926;7.080;2022-12-18T07:43:44;9.00;;;5.47;;
10132;SDS011;5106;50.926;7.080;2022-12-18T07:46:11;9.77;;;5.27;;
10132;SDS011;5106;50.926;7.080;2022-12-18T07:48:38;9.17;;;6.07;;
10132;SDS011;5106;50.926;7.080;2022-12-18T07:51:05;10.27;;;6.40;;
10132;SDS011;5106;50.926;7.080;2022-12-18T07:53:31;9.13;;;5.40;;
10132;SDS011;5106;50.926;7.080;2022-12-18T07:56:03;9.80;;;5.57;;
10132;SDS011;5106;50.926;7.080;2022-12-18T07:58:30;10.03;;;6.10;;
10132;SDS011;5106;50.926;7.080;2022-12-18T08:01:07;8.17;;;5.47;;
10132;SDS011;5106;50.926;7.080;2022-12-18T08:03:36;7.73;;;5.40;;
10132;SDS011;5106;50.926;7.080;2022-12-18T08:06:04;8.93;;;5.87;;
10132;SDS011;5106;50.926;7.080;2022-12-18T08:08:32;10.57;;;6.23;;
10132;SDS011;5106;50.926;7.080;2022-12-18T08:10:58;9.03;;;6.20;;
10132;SDS011;5106;50.926;7.080;2022-12-18T08:13:24;9.13;;;5.30;;
10132;SDS011;5106;50.926;7.080;2022-12-18T08:15:57;9.37;;;6.47;;
10132;SDS011;5106;50.926;7.080;2022-12-18T08:18:24;8.10;;;5.77;;
10132;SDS011;5106;50.926;7.080;2022-12-18T08:20:50;10.13;;;5.83;;
10132;SDS011;5106;50.926;7.080;2022-12-18T08:23:16;10.83;;;6.30;;
10132;SDS011;5106;50.926;7.080;2022-12-18T08:25:41;9.70;;;5.90;;
10132;SDS011;5106;50.926;7.080;2022-12-18T08:28:07;8.73;;;5.70;;
10132;SDS011;5106;50.926;7.080;2022-12-18T08:30:32;7.47;;;5.67;;
10132;SDS011;5106;50.926;7.080;2022-12-18T08:32:58;8.57;;;5.93;;
10132;SDS011;5106;50.926;7.080;2022-12-18T08:35:24;8.37;;;6.23;;
10132;SDS011;5106;50.926;7.080;2022-12-18T08:37:49;11.03;;;6.23;;
10132;SDS011;5106;50.926;7.080;2022-12-18T08:40:15;10.27;;;6.53;;
10132;SDS011;5106;50.926;7.080;2022-12-18T08:42:40;8.97;;;5.80;;
10132;SDS011;5106;50.926;7.080;2022-12-18T08:45:25;8.60;;;6.37;;
10132;SDS011;5106;50.926;7.080;2022-12-18T08:47:51;11.03;;;6.27;;
10132;SDS011;5106;50.926;7.080;2022-12-18T08:50:16;11.00;;;6.73;;
10132;SDS011;5106;50.926;7.080;2022-12-18T08:52:42;9.10;;;6.43;;
10132;SDS011;5106;50.926;7.080;2022-12-18T08:55:08;9.97;;;6.17;;
10132;SDS011;5106;50.926;7.080;2022-12-18T08:57:34;10.60;;;6.43;;
10132;SDS011;5106;50.926;7.080;2022-12-18T09:00:00;9.47;;;6.43;;
10132;SDS011;5106;50.926;7.080;2022-12-18T09:02:25;9.93;;;6.37;;
10132;SDS011;5106;50.926;7.080;2022-12-18T09:04:51;10.13;;;6.90;;
10132;SDS011;5106;50.926;7.080;2022-12-18T09:07:16;11.93;;;6.83;;
10132;SDS011;5106;50.926;7.080;2022-12-18T09:09:42;10.03;;;6.80;;
10132;SDS011;5106;50.926;7.080;2022-12-18T09:12:08;9.63;;;6.67;;
10132;SDS011;5106;50.926;7.080;2022-12-18T09:14:33;9.77;;;6.77;;
10132;SDS011;5106;50.926;7.080;2022-12-18T09:16:59;12.20;;;7.23;;
10132;SDS011;5106;50.926;7.080;2022-12-18T09:19:25;9.80;;;6.30;;
10132;SDS011;5106;50.926;7.080;2022-12-18T09:21:50;10.13;;;6.50;;
10132;SDS011;5106;50.926;7.080;2022-12-18T09:24:16;10.10;;;6.40;;
10132;SDS011;5106;50.926;7.080;2022-12-18T09:26:42;9.47;;;6.70;;
10132;SDS011;5106;50.926;7.080;2022-12-18T09:29:07;9.27;;;6.43;;
10132;SDS011;5106;50.926;7.080;2022-12-18T09:31:34;9.83;;;6.57;;
10132;SDS011;5106;50.926;7.080;2022-12-18T09:34:00;11.00;;;7.07;;
10132;SDS011;5106;50.926;7.080;2022-12-18T09:36:26;11.93;;;6.83;;
10132;SDS011;5106;50.926;7.080;2022-12-18T09:38:51;10.73;;;7.10;;
10132;SDS011;5106;50.926;7.080;2022-12-18T09:43:57;8.93;;;6.43;;
10132;SDS011;5106;50.926;7.080;2022-12-18T09:46:34;10.67;;;6.87;;
10132;SDS011;5106;50.926;7.080;2022-12-18T09:49:06;10.13;;;6.50;;
10132;SDS011;5106;50.926;7.080;2022-12-18T09:51:40;10.73;;;6.13;;
10132;SDS011;5106;50.926;7.080;2022-12-18T09:54:16;10.90;;;6.90;;
10132;SDS011;5106;50.926;7.080;2022-12-18T09:56:46;9.80;;;6.70;;
10132;SDS011;5106;50.926;7.080;2022-12-18T10:01:47;8.50;;;6.07;;
10132;SDS011;5106;50.926;7.080;2022-12-18T10:04:13;10.10;;;6.83;;
10132;SDS011;5106;50.926;7.080;2022-12-18T10:06:41;10.60;;;6.73;;
10132;SDS011;5106;50.926;7.080;2022-12-18T10:12:41;11.70;;;6.33;;
10132;SDS011;5106;50.926;7.080;2022-12-18T10:15:28;10.53;;;6.73;;
10132;SDS011;5106;50.926;7.080;2022-12-18T10:18:06;9.27;;;6.70;;
10132;SDS011;5106;50.926;7.080;2022-12-18T10:20:46;10.17;;;6.50;;
10132;SDS011;5106;50.926;7.080;2022-12-18T10:23:32;7.53;;;5.83;;
10132;SDS011;5106;50.926;7.080;2022-12-18T10:26:05;8.73;;;6.10;;
10132;SDS011;5106;50.926;7.080;2022-12-18T10:28:33;10.47;;;6.03;;
10132;SDS011;5106;50.926;7.080;2022-12-18T10:31:24;9.20;;;6.30;;
10132;SDS011;5106;50.926;7.080;2022-12-18T10:33:50;8.40;;;6.10;;
10132;SDS011;5106;50.926;7.080;2022-12-18T10:36:18;10.77;;;6.57;;
10132;SDS011;5106;50.926;7.080;2022-12-18T10:38:43;8.47;;;5.83;;
10132;SDS011;5106;50.926;7.080;2022-12-18T10:43:46;10.57;;;6.53;;
10132;SDS011;5106;50.926;7.080;2022-12-18T10:46:14;11.00;;;6.80;;
10132;SDS011;5106;50.926;7.080;2022-12-18T10:51:19;10.07;;;6.63;;
10132;SDS011;5106;50.926;7.080;2022-12-18T10:53:54;10.70;;;6.57;;
10132;SDS011;5106;50.926;7.080;2022-12-18T10:56:32;8.33;;;6.27;;
10132;SDS011;5106;50.926;7.080;2022-12-18T10:59:06;12.50;;;7.20;;
10132;SDS011;5106;50.926;7.080;2022-12-18T11:09:32;9.87;;;7.07;;
10132;SDS011;5106;50.926;7.080;2022-12-18T11:11:59;9.63;;;6.87;;
10132;SDS011;5106;50.926;7.080;2022-12-18T11:14:50;10.57;;;6.40;;
10132;SDS011;5106;50.926;7.080;2022-12-18T11:17:39;9.97;;;6.33;;
10132;SDS011;5106;50.926;7.080;2022-12-18T11:20:05;11.17;;;7.00;;
10132;SDS011;5106;50.926;7.080;2022-12-18T11:22:44;9.60;;;7.03;;
10132;SDS011;5106;50.926;7.080;2022-12-18T11:25:20;10.37;;;6.57;;
10132;SDS011;5106;50.926;7.080;2022-12-18T11:27:54;9.10;;;6.63;;
10132;SDS011;5106;50.926;7.080;2022-12-18T11:30:32;11.27;;;7.20;;
10132;SDS011;5106;50.926;7.080;2022-12-18T11:33:17;10.37;;;7.20;;
10132;SDS011;5106;50.926;7.080;2022-12-18T11:35:49;11.00;;;7.43;;
10132;SDS011;5106;50.926;7.080;2022-12-18T11:40:45;10.17;;;7.57;;
10132;SDS011;5106;50.926;7.080;2022-12-18T11:46:51;11.60;;;7.80;;
10132;SDS011;5106;50.926;7.080;2022-12-18T11:49:23;11.40;;;7.63;;
10132;SDS011;5106;50.926;7.080;2022-12-18T11:51:55;11.17;;;7.80;;
10132;SDS011;5106;50.926;7.080;2022-12-18T11:54:26;11.37;;;8.20;;
10132;SDS011;5106;50.926;7.080;2022-12-18T12:02:09;12.63;;;7.27;;
10132;SDS011;5106;50.926;7.080;2022-12-18T12:15:42;12.20;;;8.10;;
10132;SDS011;5106;50.926;7.080;2022-12-18T12:22:03;14.00;;;8.53;;
10132;SDS011;5106;50.926;7.080;2022-12-18T12:24:27;12.47;;;8.23;;
10132;SDS011;5106;50.926;7.080;2022-12-18T12:27:16;12.73;;;7.73;;
10132;SDS011;5106;50.926;7.080;2022-12-18T12:30:00;14.23;;;8.40;;
10132;SDS011;5106;50.926;7.080;2022-12-18T12:32:40;13.90;;;8.47;;
10132;SDS011;5106;50.926;7.080;2022-12-18T12:40:26;12.57;;;8.33;;
10132;SDS011;5106;50.926;7.080;2022-12-18T12:42:57;13.30;;;8.90;;
10132;SDS011;5106;50.926;7.080;2022-12-18T12:45:45;12.40;;;8.73;;
10132;SDS011;5106;50.926;7.080;2022-12-18T12:50:51;14.23;;;8.90;;
10132;SDS011;5106;50.926;7.080;2022-12-18T12:53:23;13.77;;;8.67;;
10132;SDS011;5106;50.926;7.080;2022-12-18T12:56:00;12.67;;;8.33;;
10132;SDS011;5106;50.926;7.080;2022-12-18T13:01:25;12.73;;;8.43;;
10132;SDS011;5106;50.926;7.080;2022-12-18T13:04:03;13.43;;;8.83;;
10132;SDS011;5106;50.926;7.080;2022-12-18T13:09:18;14.03;;;8.77;;
10132;SDS011;5106;50.926;7.080;2022-12-18T13:11:45;15.17;;;8.73;;
10132;SDS011;5106;50.926;7.080;2022-12-18T13:14:34;13.67;;;9.37;;
10132;SDS011;5106;50.926;7.080;2022-12-18T13:19:52;12.10;;;8.73;;
10132;SDS011;5106;50.926;7.080;2022-12-18T13:22:40;13.50;;;8.70;;
10132;SDS011;5106;50.926;7.080;2022-12-18T13:28:04;14.80;;;9.77;;
10132;SDS011;5106;50.926;7.080;2022-12-18T13:35:51;14.70;;;9.47;;
10132;SDS011;5106;50.926;7.080;2022-12-18T13:43:49;14.03;;;9.27;;
10132;SDS011;5106;50.926;7.080;2022-12-18T13:51:42;13.07;;;9.50;;
10132;SDS011;5106;50.926;7.080;2022-12-18T13:57:02;15.13;;;10.00;;
10132;SDS011;5106;50.926;7.080;2022-12-18T13:59:36;14.73;;;9.53;;
10132;SDS011;5106;50.926;7.080;2022-12-18T14:02:16;14.03;;;9.40;;
10132;SDS011;5106;50.926;7.080;2022-12-18T14:04:46;17.27;;;9.83;;
10132;SDS011;5106;50.926;7.080;2022-12-18T14:07:19;16.53;;;10.27;;
10132;SDS011;5106;50.926;7.080;2022-12-18T14:09:57;13.87;;;9.93;;
10132;SDS011;5106;50.926;7.080;2022-12-18T14:12:27;16.40;;;9.97;;
10132;SDS011;5106;50.926;7.080;2022-12-18T14:17:58;14.43;;;9.63;;
10132;SDS011;5106;50.926;7.080;2022-12-18T14:20:27;14.97;;;9.40;;
10132;SDS011;5106;50.926;7.080;2022-12-18T14:22:54;15.60;;;10.13;;
10132;SDS011;5106;50.926;7.080;2022-12-18T14:25:25;15.50;;;10.43;;
10132;SDS011;5106;50.926;7.080;2022-12-18T14:27:57;15.23;;;10.00;;
10132;SDS011;5106;50.926;7.080;2022-12-18T14:30:38;16.40;;;10.17;;
10132;SDS011;5106;50.926;7.080;2022-12-18T14:35:34;16.97;;;10.13;;
10132;SDS011;5106;50.926;7.080;2022-12-18T14:40:57;18.87;;;11.67;;
10132;SDS011;5106;50.926;7.080;2022-12-18T14:43:26;16.20;;;10.87;;
10132;SDS011;5106;50.926;7.080;2022-12-18T14:45:53;15.10;;;9.70;;
10132;SDS011;5106;50.926;7.080;2022-12-18T14:48:30;16.03;;;10.43;;
10132;SDS011;5106;50.926;7.080;2022-12-18T14:51:02;16.07;;;10.37;;
10132;SDS011;5106;50.926;7.080;2022-12-18T14:53:37;16.27;;;10.40;;
10132;SDS011;5106;50.926;7.080;2022-12-18T14:56:15;15.70;;;10.20;;
10132;SDS011;5106;50.926;7.080;2022-12-18T14:58:53;15.10;;;10.47;;
10132;SDS011;5106;50.926;7.080;2022-12-18T15:03:54;18.93;;;11.23;;
10132;SDS011;5106;50.926;7.080;2022-12-18T15:06:26;15.60;;;11.20;;
10132;SDS011;5106;50.926;7.080;2022-12-18T15:08:57;15.23;;;10.20;;
10132;SDS011;5106;50.926;7.080;2022-12-18T15:11:25;18.13;;;10.67;;
10132;SDS011;5106;50.926;7.080;2022-12-18T15:13:58;18.00;;;10.67;;
10132;SDS011;5106;50.926;7.080;2022-12-18T15:16:25;16.77;;;11.17;;
10132;SDS011;5106;50.926;7.080;2022-12-18T15:18:51;15.80;;;10.57;;
10132;SDS011;5106;50.926;7.080;2022-12-18T15:21:18;16.03;;;10.73;;
10132;SDS011;5106;50.926;7.080;2022-12-18T15:23:49;17.53;;;10.93;;
10132;SDS011;5106;50.926;7.080;2022-12-18T15:26:16;17.07;;;10.43;;
10132;SDS011;5106;50.926;7.080;2022-12-18T15:36:20;16.13;;;11.00;;
10132;SDS011;5106;50.926;7.080;2022-12-18T15:38:48;18.37;;;11.50;;
10132;SDS011;5106;50.926;7.080;2022-12-18T15:41:14;18.27;;;11.60;;
10132;SDS011;5106;50.926;7.080;2022-12-18T15:43:41;18.43;;;12.23;;
10132;SDS011;5106;50.926;7.080;2022-12-18T15:46:15;16.87;;;11.47;;
10132;SDS011;5106;50.926;7.080;2022-12-18T15:48:44;20.43;;;12.30;;
10132;SDS011;5106;50.926;7.080;2022-12-18T15:51:23;19.17;;;11.73;;
10132;SDS011;5106;50.926;7.080;2022-12-18T15:53:53;19.90;;;12.97;;
10132;SDS011;5106;50.926;7.080;2022-12-18T15:56:21;17.80;;;11.70;;
10132;SDS011;5106;50.926;7.080;2022-12-18T15:59:10;19.87;;;12.33;;
10132;SDS011;5106;50.926;7.080;2022-12-18T16:01:37;19.40;;;12.67;;
10132;SDS011;5106;50.926;7.080;2022-12-18T16:04:03;18.53;;;11.93;;
10132;SDS011;5106;50.926;7.080;2022-12-18T16:06:28;18.10;;;12.47;;
10132;SDS011;5106;50.926;7.080;2022-12-18T16:08:54;20.97;;;12.70;;
10132;SDS011;5106;50.926;7.080;2022-12-18T16:11:20;19.63;;;12.30;;
10132;SDS011;5106;50.926;7.080;2022-12-18T16:14:03;19.60;;;12.57;;
10132;SDS011;5106;50.926;7.080;2022-12-18T16:16:45;19.83;;;12.33;;
10132;SDS011;5106;50.926;7.080;2022-12-18T16:19:12;20.33;;;12.07;;
10132;SDS011;5106;50.926;7.080;2022-12-18T16:21:38;20.53;;;13.20;;
10132;SDS011;5106;50.926;7.080;2022-12-18T16:24:03;19.67;;;12.80;;
10132;SDS011;5106;50.926;7.080;2022-12-18T16:26:29;20.63;;;13.20;;
10132;SDS011;5106;50.926;7.080;2022-12-18T16:28:57;18.57;;;12.53;;
10132;SDS011;5106;50.926;7.080;2022-12-18T16:31:23;18.80;;;13.20;;
10132;SDS011;5106;50.926;7.080;2022-12-18T16:33:49;21.10;;;13.80;;
10132;SDS011;5106;50.926;7.080;2022-12-18T16:36:14;20.80;;;13.40;;
10132;SDS011;5106;50.926;7.080;2022-12-18T16:38:40;20.10;;;13.20;;
10132;SDS011;5106;50.926;7.080;2022-12-18T16:41:17;20.47;;;13.40;;
10132;SDS011;5106;50.926;7.080;2022-12-18T16:43:56;20.43;;;13.37;;
10132;SDS011;5106;50.926;7.080;2022-12-18T16:46:22;21.87;;;13.67;;
10132;SDS011;5106;50.926;7.080;2022-12-18T16:48:47;20.73;;;14.07;;
10132;SDS011;5106;50.926;7.080;2022-12-18T16:51:14;20.73;;;14.07;;
10132;SDS011;5106;50.926;7.080;2022-12-18T16:53:40;18.77;;;12.27;;
10132;SDS011;5106;50.926;7.080;2022-12-18T16:56:05;22.27;;;13.83;;
10132;SDS011;5106;50.926;7.080;2022-12-18T16:58:31;21.00;;;13.27;;
10132;SDS011;5106;50.926;7.080;2022-12-18T17:00:57;18.77;;;13.07;;
10132;SDS011;5106;50.926;7.080;2022-12-18T17:03:22;22.83;;;13.73;;
10132;SDS011;5106;50.926;7.080;2022-12-18T17:05:48;21.53;;;13.33;;
10132;SDS011;5106;50.926;7.080;2022-12-18T17:08:13;21.57;;;14.63;;
10132;SDS011;5106;50.926;7.080;2022-12-18T17:10:39;21.57;;;14.23;;
10132;SDS011;5106;50.926;7.080;2022-12-18T17:13:05;23.80;;;14.47;;
10132;SDS011;5106;50.926;7.080;2022-12-18T17:15:33;23.27;;;14.37;;
10132;SDS011;5106;50.926;7.080;2022-12-18T17:18:00;20.83;;;13.37;;
10132;SDS011;5106;50.926;7.080;2022-12-18T17:20:26;22.43;;;14.43;;
10132;SDS011;5106;50.926;7.080;2022-12-18T17:22:51;20.60;;;13.53;;
10132;SDS011;5106;50.926;7.080;2022-12-18T17:25:17;21.30;;;13.37;;
10132;SDS011;5106;50.926;7.080;2022-12-18T17:27:42;22.70;;;13.67;;
10132;SDS011;5106;50.926;7.080;2022-12-18T17:30:08;23.70;;;14.07;;